createdAt,value
2018-05-18T00:01:22.288Z,25.10
2018-05-18T00:03:50.542Z,24.83
2018-05-18T00:06:18.723Z,25.83
2018-05-18T00:08:46.927Z,25.90
2018-05-18T00:11:15.200Z,29.43
2018-05-18T00:13:43.382Z,28.10
2018-05-18T00:16:11.578Z,26.90
2018-05-18T00:18:39.850Z,28.00
2018-05-18T00:21:08.041Z,27.17
2018-05-18T00:23:36.242Z,26.63
2018-05-18T00:26:04.515Z,23.57
2018-05-18T00:28:32.702Z,23.50
2018-05-18T00:31:00.903Z,19.73
2018-05-18T00:33:29.172Z,21.50
2018-05-18T00:35:57.369Z,21.40
2018-05-18T00:38:25.550Z,21.13
2018-05-18T00:40:53.743Z,22.83
2018-05-18T00:43:21.935Z,21.80
2018-05-18T00:45:50.135Z,21.33
2018-05-18T00:48:18.395Z,22.90
2018-05-18T00:50:46.595Z,20.27
2018-05-18T00:53:14.851Z,19.00
2018-05-18T00:55:43.083Z,20.57
2018-05-18T00:58:11.362Z,21.33
2018-05-18T01:00:39.647Z,21.13
2018-05-18T01:03:07.839Z,19.43
2018-05-18T01:05:36.110Z,21.00
2018-05-18T01:08:04.298Z,19.70
2018-05-18T01:10:32.499Z,18.10
2018-05-18T01:13:00.775Z,20.50
2018-05-18T01:15:29.019Z,20.23
2018-05-18T01:17:57.263Z,19.67
2018-05-18T01:20:25.554Z,18.43
2018-05-18T01:22:53.739Z,20.47
2018-05-18T01:25:21.898Z,19.20
2018-05-18T01:27:50.114Z,19.27
2018-05-18T01:30:18.381Z,18.47
2018-05-18T01:32:46.567Z,20.23
2018-05-18T01:35:14.771Z,19.33
2018-05-18T01:37:43.064Z,18.07
2018-05-18T01:40:11.250Z,18.53
2018-05-18T01:42:39.534Z,18.77
2018-05-18T01:45:07.726Z,20.30
2018-05-18T01:47:35.907Z,19.07
2018-05-18T01:50:04.149Z,19.37
2018-05-18T01:52:32.382Z,18.77
2018-05-18T01:55:00.570Z,19.87
2018-05-18T01:57:28.759Z,18.10
2018-05-18T01:59:56.950Z,19.90
2018-05-18T02:02:25.230Z,19.50
2018-05-18T02:04:53.409Z,19.40
2018-05-18T02:07:21.608Z,21.30
2018-05-18T02:09:49.874Z,19.67
2018-05-18T02:12:18.085Z,19.20
2018-05-18T02:14:46.263Z,20.17
2018-05-18T02:17:14.442Z,18.77
2018-05-18T02:19:42.626Z,19.53
2018-05-18T02:22:10.834Z,19.47
2018-05-18T02:24:39.122Z,20.73
2018-05-18T02:27:07.391Z,20.73
2018-05-18T02:29:35.598Z,20.50
2018-05-18T02:32:03.875Z,21.40
2018-05-18T02:34:32.060Z,19.03
2018-05-18T02:37:00.255Z,18.57
2018-05-18T02:39:28.534Z,19.30
2018-05-18T02:41:56.724Z,21.00
2018-05-18T02:44:24.915Z,20.60
2018-05-18T02:46:53.205Z,19.93
2018-05-18T02:49:21.387Z,19.50
2018-05-18T02:51:49.584Z,19.57
2018-05-18T02:54:17.860Z,18.03
2018-05-18T02:56:46.047Z,18.93
2018-05-18T02:59:14.243Z,19.00
2018-05-18T03:01:42.415Z,18.63
2018-05-18T03:04:10.607Z,18.57
2018-05-18T03:06:38.787Z,19.47
2018-05-18T03:09:07.027Z,20.63
2018-05-18T03:11:35.263Z,19.13
2018-05-18T03:14:03.454Z,19.20
2018-05-18T03:16:31.718Z,21.43
2018-05-18T03:18:59.926Z,21.30
2018-05-18T03:21:28.116Z,19.90
2018-05-18T03:23:56.311Z,21.30
2018-05-18T03:26:24.498Z,24.10
2018-05-18T03:28:52.782Z,22.00
2018-05-18T03:31:21.072Z,22.47
2018-05-18T03:33:49.234Z,22.07
2018-05-18T03:36:17.555Z,20.57
2018-05-18T03:38:45.810Z,23.33
2018-05-18T03:41:14.007Z,22.17
2018-05-18T03:43:42.215Z,22.93
2018-05-18T03:46:10.476Z,21.90
2018-05-18T03:48:38.671Z,22.90
2018-05-18T03:51:06.871Z,23.57
2018-05-18T03:53:35.171Z,25.53
2018-05-18T03:56:03.450Z,28.10
2018-05-18T03:58:31.733Z,24.80
2018-05-18T04:00:59.931Z,27.93
2018-05-18T04:05:40.769Z,26.60
2018-05-18T04:08:16.434Z,30.07
2018-05-18T04:10:44.683Z,28.53
2018-05-18T04:13:12.956Z,32.37
2018-05-18T04:15:41.142Z,29.90
2018-05-18T04:18:09.444Z,30.57
2018-05-18T04:20:37.710Z,30.87
2018-05-18T04:23:05.911Z,33.00
2018-05-18T04:25:34.106Z,30.97
2018-05-18T04:28:02.382Z,33.90
2018-05-18T04:30:30.597Z,35.07
2018-05-18T04:32:58.768Z,33.87
2018-05-18T04:35:27.048Z,32.47
2018-05-18T04:37:55.234Z,34.10
2018-05-18T04:40:23.425Z,34.60
2018-05-18T04:42:51.599Z,35.30
2018-05-18T04:45:19.799Z,37.47
2018-05-18T04:47:47.991Z,34.97
2018-05-18T04:50:16.266Z,32.20
2018-05-18T04:52:44.474Z,35.50
2018-05-18T04:55:12.755Z,32.40
2018-05-18T04:57:41.031Z,32.43
2018-05-18T05:00:09.231Z,31.67
2018-05-18T05:02:37.535Z,31.70
2018-05-18T05:05:05.792Z,32.60
2018-05-18T05:07:33.978Z,32.50
2018-05-18T05:10:02.186Z,30.27
2018-05-18T05:12:30.507Z,32.77
2018-05-18T05:14:58.647Z,31.50
2018-05-18T05:17:26.843Z,26.13
2018-05-18T05:19:55.106Z,23.50
2018-05-18T05:22:23.312Z,20.27
2018-05-18T05:24:51.494Z,19.40
2018-05-18T05:27:19.775Z,18.27
2018-05-18T05:29:47.963Z,20.17
2018-05-18T05:32:16.190Z,19.67
2018-05-18T05:34:44.436Z,18.23
2018-05-18T05:37:12.619Z,17.37
2018-05-18T05:39:40.822Z,18.90
2018-05-18T05:42:09.007Z,20.53
2018-05-18T05:44:37.182Z,19.63
2018-05-18T05:47:05.407Z,19.50
2018-05-18T05:49:33.665Z,20.47
2018-05-18T05:52:01.846Z,18.30
2018-05-18T05:54:30.051Z,18.77
2018-05-18T05:56:58.327Z,19.33
2018-05-18T05:59:27.335Z,18.77
2018-05-18T06:01:55.523Z,19.47
2018-05-18T06:04:23.702Z,21.40
2018-05-18T06:06:51.882Z,19.70
2018-05-18T06:09:20.071Z,20.13
2018-05-18T06:11:48.279Z,20.43
2018-05-18T06:14:16.455Z,22.60
2018-05-18T06:16:44.652Z,22.00
2018-05-18T06:19:12.839Z,22.07
2018-05-18T06:21:41.018Z,20.47
2018-05-18T06:24:09.207Z,20.87
2018-05-18T06:26:37.383Z,22.47
2018-05-18T06:29:05.559Z,22.60
2018-05-18T06:31:33.755Z,20.73
2018-05-18T06:34:01.940Z,21.27
2018-05-18T06:36:30.183Z,20.87
2018-05-18T06:38:58.374Z,19.60
2018-05-18T06:41:26.550Z,21.07
2018-05-18T06:43:54.719Z,20.90
2018-05-18T06:46:22.924Z,21.00
2018-05-18T06:48:51.090Z,20.80
2018-05-18T06:51:19.263Z,23.63
2018-05-18T06:53:47.466Z,20.80
2018-05-18T06:56:15.644Z,19.87
2018-05-18T06:58:43.915Z,30.37
2018-05-18T07:01:12.018Z,20.50
2018-05-18T07:03:40.174Z,22.90
2018-05-18T07:06:08.362Z,23.40
2018-05-18T07:08:36.566Z,20.87
2018-05-18T07:11:04.758Z,20.87
2018-05-18T07:13:32.938Z,21.50
2018-05-18T07:16:01.146Z,23.47
2018-05-18T07:18:29.318Z,20.80
2018-05-18T07:20:57.490Z,22.13
2018-05-18T07:23:25.684Z,23.10
2018-05-18T07:25:53.867Z,22.60
2018-05-18T07:28:22.051Z,23.20
2018-05-18T07:30:50.240Z,22.07
2018-05-18T07:33:18.412Z,27.20
2018-05-18T07:35:46.598Z,23.00
2018-05-18T07:38:14.803Z,24.80
2018-05-18T07:40:42.994Z,23.43
2018-05-18T07:43:11.158Z,22.23
2018-05-18T07:45:39.348Z,23.13
2018-05-18T07:48:07.514Z,23.50
2018-05-18T07:50:35.704Z,24.27
2018-05-18T07:53:03.883Z,21.93
2018-05-18T07:55:32.058Z,25.13
2018-05-18T07:58:00.234Z,25.47
2018-05-18T08:00:28.424Z,23.60
2018-05-18T08:02:56.606Z,24.60
2018-05-18T08:05:24.794Z,22.17
2018-05-18T08:07:53.020Z,22.97
2018-05-18T08:10:21.183Z,22.03
2018-05-18T08:12:49.358Z,22.13
2018-05-18T08:15:17.554Z,22.67
2018-05-18T08:17:45.730Z,23.30
2018-05-18T08:20:13.914Z,23.00
2018-05-18T08:22:42.114Z,23.50
2018-05-18T08:25:10.295Z,23.13
2018-05-18T08:27:38.470Z,22.77
2018-05-18T08:30:06.650Z,23.33
2018-05-18T08:32:34.834Z,23.03
2018-05-18T08:35:03.046Z,20.83
2018-05-18T08:37:31.226Z,20.93
2018-05-18T08:39:59.408Z,23.83
2018-05-18T08:42:27.583Z,21.70
2018-05-18T08:44:55.773Z,23.53
2018-05-18T08:47:23.977Z,23.87
2018-05-18T08:49:52.172Z,23.60
2018-05-18T08:52:20.360Z,23.57
2018-05-18T08:54:48.575Z,23.50
2018-05-18T08:57:16.746Z,22.23
2018-05-18T08:59:44.987Z,24.07
2018-05-18T09:02:13.182Z,23.60
2018-05-18T09:04:41.363Z,24.40
2018-05-18T09:07:09.558Z,23.10
2018-05-18T09:09:37.726Z,23.10
2018-05-18T09:12:06.011Z,23.80
2018-05-18T09:14:34.255Z,22.40
2018-05-18T09:17:02.663Z,20.80
2018-05-18T09:19:30.829Z,20.27
2018-05-18T09:21:59.017Z,20.17
2018-05-18T09:24:27.187Z,21.60
2018-05-18T09:26:55.363Z,21.50
2018-05-18T09:29:23.551Z,21.97
2018-05-18T09:31:52.026Z,24.00
2018-05-18T09:34:20.242Z,20.60
2018-05-18T09:36:48.409Z,24.47
2018-05-18T09:39:16.578Z,21.37
2018-05-18T09:41:44.754Z,21.07
2018-05-18T09:44:12.947Z,23.70
2018-05-18T09:46:41.122Z,23.97
2018-05-18T09:49:09.383Z,21.80
2018-05-18T09:51:37.566Z,22.90
2018-05-18T09:54:05.779Z,22.70
2018-05-18T09:56:33.911Z,22.17
2018-05-18T09:59:02.099Z,20.90
2018-05-18T10:01:30.287Z,23.80
2018-05-18T10:03:58.470Z,20.60
2018-05-18T10:06:26.652Z,22.63
2018-05-18T10:08:54.834Z,20.33
2018-05-18T10:11:23.003Z,21.00
2018-05-18T10:13:51.559Z,19.83
2018-05-18T10:16:19.736Z,21.17
2018-05-18T10:18:47.910Z,22.23
2018-05-18T10:21:16.119Z,20.73
2018-05-18T10:23:44.306Z,19.77
2018-05-18T10:26:12.484Z,21.40
2018-05-18T10:28:40.658Z,19.60
2018-05-18T10:31:08.833Z,20.73
2018-05-18T10:33:37.208Z,19.20
2018-05-18T10:36:05.390Z,19.43
2018-05-18T10:38:33.579Z,19.40
2018-05-18T10:41:01.750Z,20.13
2018-05-18T10:43:29.934Z,19.53
2018-05-18T10:45:58.134Z,20.10
2018-05-18T10:48:26.455Z,18.87
2018-05-18T10:50:54.701Z,20.23
2018-05-18T10:53:22.888Z,19.00
2018-05-18T10:55:51.074Z,19.70
2018-05-18T10:58:19.282Z,20.37
2018-05-18T11:00:47.458Z,21.50
2018-05-18T11:03:15.690Z,23.10
2018-05-18T11:05:43.882Z,23.53
2018-05-18T11:08:12.076Z,23.37
2018-05-18T11:10:40.242Z,21.03
2018-05-18T11:13:08.435Z,21.37
2018-05-18T11:15:36.620Z,20.47
2018-05-18T11:18:04.814Z,20.63
2018-05-18T11:20:33.007Z,20.93
2018-05-18T11:23:01.183Z,22.13
2018-05-18T11:25:29.347Z,20.97
2018-05-18T11:27:57.534Z,20.67
2018-05-18T11:30:25.706Z,19.03
2018-05-18T11:32:53.891Z,20.03
2018-05-18T11:35:22.091Z,21.80
2018-05-18T11:37:50.272Z,21.30
2018-05-18T11:40:18.442Z,20.80
2018-05-18T11:42:46.644Z,20.30
2018-05-18T11:45:14.879Z,22.00
2018-05-18T11:47:43.075Z,20.80
2018-05-18T11:50:11.259Z,22.83
2018-05-18T11:52:39.431Z,20.70
2018-05-18T11:55:07.601Z,20.07
2018-05-18T11:57:35.821Z,19.70
2018-05-18T12:00:03.983Z,20.20
2018-05-18T12:02:32.273Z,18.27
2018-05-18T12:05:00.348Z,18.83
2018-05-18T12:07:28.515Z,19.37
2018-05-18T12:09:56.739Z,18.17
2018-05-18T12:12:24.931Z,18.00
2018-05-18T12:14:53.115Z,17.83
2018-05-18T12:17:21.282Z,20.07
2018-05-18T12:19:49.482Z,17.63
2018-05-18T12:22:17.740Z,18.50
2018-05-18T12:24:45.841Z,18.63
2018-05-18T12:27:14.031Z,19.00
2018-05-18T12:29:42.214Z,18.50
2018-05-18T12:32:10.406Z,16.90
2018-05-18T12:34:38.597Z,16.60
2018-05-18T12:37:06.756Z,15.20
2018-05-18T12:39:34.923Z,14.83
2018-05-18T12:42:03.103Z,16.37
2018-05-18T12:44:31.307Z,16.60
2018-05-18T12:47:00.215Z,16.17
2018-05-18T12:49:28.402Z,15.97
2018-05-18T12:51:56.614Z,15.13
2018-05-18T12:54:24.794Z,17.77
2018-05-18T12:56:52.995Z,16.17
2018-05-18T12:59:21.173Z,18.20
2018-05-18T13:01:49.785Z,16.97
2018-05-18T13:04:17.982Z,17.00
2018-05-18T13:06:46.150Z,17.30
2018-05-18T13:09:14.332Z,16.60
2018-05-18T13:11:42.507Z,17.43
2018-05-18T13:14:10.675Z,17.57
2018-05-18T13:16:38.858Z,20.30
2018-05-18T13:19:07.050Z,17.50
2018-05-18T13:21:35.275Z,18.00
2018-05-18T13:24:03.450Z,16.07
2018-05-18T13:26:31.695Z,16.40
2018-05-18T13:28:59.875Z,16.80
2018-05-18T13:31:28.062Z,15.67
2018-05-18T13:33:56.247Z,16.50
2018-05-18T13:36:24.434Z,19.03
2018-05-18T13:38:52.830Z,16.13
2018-05-18T13:41:20.833Z,16.60
2018-05-18T13:43:49.031Z,16.83
2018-05-18T13:46:17.226Z,18.13
2018-05-18T13:48:45.410Z,18.60
2018-05-18T13:51:13.584Z,18.07
2018-05-18T13:53:41.757Z,17.17
2018-05-18T13:56:09.955Z,17.43
2018-05-18T13:58:38.146Z,18.00
2018-05-18T14:01:06.319Z,18.33
2018-05-18T14:03:34.539Z,16.13
2018-05-18T14:06:02.823Z,16.17
2018-05-18T14:08:31.010Z,17.00
2018-05-18T14:10:59.266Z,15.50
2018-05-18T14:13:27.386Z,16.73
2018-05-18T14:15:55.563Z,16.23
2018-05-18T14:18:23.752Z,15.73
2018-05-18T14:20:51.940Z,14.27
2018-05-18T14:23:20.116Z,15.47
2018-05-18T14:25:48.307Z,16.57
2018-05-18T14:28:16.482Z,14.13
2018-05-18T14:30:44.671Z,13.63
2018-05-18T14:33:12.854Z,14.10
2018-05-18T14:35:41.030Z,14.97
2018-05-18T14:38:09.218Z,14.70
2018-05-18T14:40:37.410Z,13.60
2018-05-18T14:43:05.604Z,15.37
2018-05-18T14:45:33.777Z,14.97
2018-05-18T14:48:01.963Z,15.17
2018-05-18T14:50:30.138Z,13.00
2018-05-18T14:52:58.307Z,13.30
2018-05-18T14:55:26.520Z,12.67
2018-05-18T14:57:54.750Z,14.77
2018-05-18T15:00:22.932Z,14.77
2018-05-18T15:02:51.115Z,14.43
2018-05-18T15:05:19.298Z,15.20
2018-05-18T15:07:47.462Z,14.77
2018-05-18T15:10:15.654Z,15.30
2018-05-18T15:12:43.840Z,14.40
2018-05-18T15:15:12.031Z,13.33
2018-05-18T15:17:40.266Z,15.40
2018-05-18T15:20:08.558Z,14.73
2018-05-18T15:22:36.811Z,14.90
2018-05-18T15:25:05.169Z,14.00
2018-05-18T15:27:33.370Z,14.00
2018-05-18T15:30:01.590Z,14.97
2018-05-18T15:32:29.866Z,15.80
2018-05-18T15:34:58.134Z,13.97
2018-05-18T15:37:26.466Z,13.97
2018-05-18T15:39:54.620Z,14.60
2018-05-18T15:42:22.801Z,14.90
2018-05-18T15:44:50.999Z,14.70
2018-05-18T15:47:19.203Z,14.20
2018-05-18T15:49:47.454Z,15.03
2018-05-18T15:52:15.656Z,15.40
2018-05-18T15:54:43.961Z,14.73
2018-05-18T15:57:12.239Z,13.07
2018-05-18T15:59:40.446Z,13.90
2018-05-18T16:02:08.727Z,13.13
2018-05-18T16:04:36.995Z,11.30
2018-05-18T16:07:05.190Z,12.60
2018-05-18T16:09:33.391Z,13.40
2018-05-18T16:12:01.671Z,10.03
2018-05-18T16:14:29.991Z,11.20
2018-05-18T16:16:58.166Z,12.00
2018-05-18T16:19:26.431Z,11.33
2018-05-18T16:21:54.688Z,10.67
2018-05-18T16:24:22.916Z,12.07
2018-05-18T16:26:51.182Z,11.63
2018-05-18T16:29:19.367Z,11.37
2018-05-18T16:31:47.567Z,10.93
2018-05-18T16:34:15.734Z,11.87
2018-05-18T16:36:43.943Z,12.73
2018-05-18T16:39:12.134Z,12.90
2018-05-18T16:41:40.302Z,13.73
2018-05-18T16:44:08.482Z,11.10
2018-05-18T16:46:36.808Z,13.17
2018-05-18T16:49:05.027Z,13.00
2018-05-18T16:51:33.267Z,12.83
2018-05-18T16:54:01.459Z,12.20
2018-05-18T16:56:29.658Z,12.43
2018-05-18T16:58:57.842Z,12.00
2018-05-18T17:01:26.124Z,13.07
2018-05-18T17:03:54.302Z,13.40
2018-05-18T17:06:22.475Z,13.60
2018-05-18T17:08:50.674Z,14.07
2018-05-18T17:11:18.838Z,13.67
2018-05-18T17:13:47.014Z,13.87
2018-05-18T17:16:15.206Z,14.73
2018-05-18T17:18:43.386Z,13.97
2018-05-18T17:21:11.575Z,13.27
2018-05-18T17:23:39.762Z,15.07
2018-05-18T17:26:07.936Z,14.20
2018-05-18T17:28:36.150Z,12.80
2018-05-18T17:31:04.343Z,13.03
2018-05-18T17:33:32.511Z,13.20
2018-05-18T17:36:00.678Z,13.60
2018-05-18T17:38:28.878Z,12.17
2018-05-18T17:40:57.095Z,13.20
2018-05-18T17:43:25.363Z,12.67
2018-05-18T17:45:53.595Z,12.60
2018-05-18T17:48:21.847Z,12.93
2018-05-18T17:50:50.026Z,13.70
2018-05-18T17:53:18.227Z,11.90
2018-05-18T17:55:46.398Z,12.90
2018-05-18T17:58:14.583Z,11.90
2018-05-18T18:00:42.769Z,12.90
2018-05-18T18:03:10.947Z,13.93
2018-05-18T18:05:39.143Z,14.77
2018-05-18T18:08:07.350Z,13.10
2018-05-18T18:10:35.619Z,13.90
2018-05-18T18:13:03.843Z,14.13
2018-05-18T18:15:32.127Z,13.70
2018-05-18T18:18:00.395Z,13.60
2018-05-18T18:20:28.690Z,15.40
2018-05-18T18:22:56.982Z,13.87
2018-05-18T18:25:25.254Z,13.83
2018-05-18T18:27:53.443Z,14.20
2018-05-18T18:30:21.635Z,17.70
2018-05-18T18:32:49.918Z,18.10
2018-05-18T18:35:18.402Z,16.77
2018-05-18T18:37:46.606Z,16.63
2018-05-18T18:40:15.005Z,16.00
2018-05-18T18:42:43.162Z,19.10
2018-05-18T18:45:11.367Z,18.20
2018-05-18T18:47:39.535Z,18.03
2018-05-18T18:50:07.726Z,18.53
2018-05-18T18:52:36.001Z,20.47
2018-05-18T18:55:04.222Z,20.70
2018-05-18T18:57:32.494Z,21.47
2018-05-18T19:00:00.703Z,20.83
2018-05-18T19:02:28.986Z,22.23
2018-05-18T19:04:57.263Z,22.63
2018-05-18T19:07:25.459Z,22.90
2018-05-18T19:09:53.734Z,22.43
2018-05-18T19:12:22.058Z,21.77
2018-05-18T19:14:50.319Z,22.50
2018-05-18T19:17:18.490Z,23.57
2018-05-18T19:19:46.680Z,24.57
2018-05-18T19:22:14.894Z,24.17
2018-05-18T19:24:43.163Z,25.00
2018-05-18T19:27:11.330Z,25.10
2018-05-18T19:29:39.639Z,27.27
2018-05-18T19:32:07.814Z,27.43
2018-05-18T19:34:36.006Z,26.13
2018-05-18T19:37:04.242Z,26.47
2018-05-18T19:39:32.514Z,26.10
2018-05-18T19:42:00.771Z,29.10
2018-05-18T19:44:28.972Z,26.50
2018-05-18T19:46:57.454Z,25.33
2018-05-18T19:49:25.731Z,25.87
2018-05-18T19:51:53.938Z,25.60
2018-05-18T19:54:22.206Z,22.93
2018-05-18T19:56:50.455Z,25.40
2018-05-18T19:59:18.707Z,24.33
2018-05-18T20:01:46.980Z,25.83
2018-05-18T20:04:15.202Z,25.00
2018-05-18T20:06:43.494Z,26.17
2018-05-18T20:09:11.751Z,25.83
2018-05-18T20:11:40.055Z,25.90
2018-05-18T20:14:08.542Z,27.03
2018-05-18T20:16:37.095Z,25.13
2018-05-18T20:20:08.595Z,26.40
2018-05-18T20:22:36.795Z,27.43
2018-05-18T20:25:05.182Z,26.37
2018-05-18T20:27:33.311Z,25.07
2018-05-18T20:30:01.548Z,25.10
2018-05-18T20:32:29.758Z,27.00
2018-05-18T20:34:58.034Z,28.97
2018-05-18T20:37:26.368Z,26.70
2018-05-18T20:39:54.630Z,26.23
2018-05-18T20:42:22.918Z,25.03
2018-05-18T20:44:51.190Z,24.50
2018-05-18T20:47:19.480Z,26.33
2018-05-18T20:49:47.672Z,26.93
2018-05-18T20:52:15.962Z,27.20
2018-05-18T20:54:44.247Z,28.40
2018-05-18T20:57:12.549Z,26.80
2018-05-18T20:59:40.799Z,27.07
2018-05-18T21:02:08.994Z,29.93
2018-05-18T21:04:37.195Z,27.67
2018-05-18T21:07:05.474Z,26.53
2018-05-18T21:09:33.666Z,29.70
2018-05-18T21:12:01.876Z,25.70
2018-05-18T21:14:30.142Z,26.50
2018-05-18T21:16:58.434Z,23.90
2018-05-18T21:19:26.726Z,25.70
2018-05-18T21:21:55.006Z,26.10
2018-05-18T21:24:23.298Z,24.53
2018-05-18T21:26:51.594Z,23.23
2018-05-18T21:29:19.874Z,23.53
2018-05-18T21:31:48.163Z,23.67
2018-05-18T21:34:16.359Z,24.27
2018-05-18T21:36:44.646Z,24.57
2018-05-18T21:39:12.937Z,23.07
2018-05-18T21:41:41.227Z,24.13
2018-05-18T21:44:09.526Z,24.53
2018-05-18T21:46:37.799Z,24.83
2018-05-18T21:49:06.102Z,24.20
2018-05-18T21:51:34.385Z,23.63
2018-05-18T21:54:02.570Z,23.37
2018-05-18T21:56:30.850Z,24.33
2018-05-18T21:58:59.130Z,23.33
2018-05-18T22:01:28.146Z,24.57
2018-05-18T22:03:56.438Z,24.23
2018-05-18T22:06:24.719Z,25.30
2018-05-18T22:08:52.952Z,23.47
2018-05-18T22:11:21.190Z,24.13
2018-05-18T22:13:49.400Z,23.47
2018-05-18T22:16:17.659Z,22.90
2018-05-18T22:18:45.850Z,24.77
2018-05-18T22:21:14.047Z,24.30
2018-05-18T22:23:42.322Z,25.77
2018-05-18T22:26:10.521Z,24.97
2018-05-18T22:28:38.726Z,25.57
2018-05-18T22:31:06.974Z,24.97
2018-05-18T22:33:35.382Z,24.40
2018-05-18T22:36:03.566Z,25.27
2018-05-18T22:38:31.743Z,23.90
2018-05-18T22:40:59.931Z,24.30
2018-05-18T22:43:28.142Z,24.70
2018-05-18T22:45:56.410Z,24.83
2018-05-18T22:48:24.598Z,26.03
2018-05-18T22:50:52.798Z,24.90
2018-05-18T22:53:35.440Z,24.97
2018-05-18T22:56:03.774Z,24.50
2018-05-18T22:58:31.986Z,25.47
2018-05-18T23:01:00.174Z,26.00
2018-05-18T23:03:28.383Z,25.30
2018-05-18T23:05:56.751Z,27.40
2018-05-18T23:08:24.963Z,25.57
2018-05-18T23:10:53.243Z,26.23
2018-05-18T23:13:21.667Z,25.23
2018-05-18T23:15:49.907Z,25.57
2018-05-18T23:18:18.102Z,25.97
2018-05-18T23:20:46.380Z,27.10
2018-05-18T23:23:14.575Z,25.47
2018-05-18T23:25:42.776Z,25.03
2018-05-18T23:28:11.042Z,25.80
2018-05-18T23:30:39.218Z,24.53
2018-05-18T23:33:07.451Z,25.70
2018-05-18T23:35:35.730Z,25.40
2018-05-18T23:38:04.019Z,25.30
2018-05-18T23:40:32.304Z,26.53
2018-05-18T23:43:00.582Z,25.10
2018-05-18T23:45:28.765Z,27.13
2018-05-18T23:47:56.958Z,28.17
2018-05-18T23:50:25.246Z,27.77
2018-05-18T23:52:53.534Z,25.53
2018-05-18T23:55:22.044Z,27.33
2018-05-18T23:57:50.301Z,26.00
